Time;durP1;ratioP1;P1;durP2;ratioP2;P2;SDS_P1;SDS_P2;PMS_P1;PMS_P2;Temp;Humidity;BMP_temperature;BMP_pressure;BME280_temperature;BME280_humidity;BME280_pressure;Samples;Min_cycle;Max_cycle;Signal;HPM_P1;HPM_P2
2022/05/27 00:02:10;;;;;;;17.30;4.22;;;15.10;99.90;;;;;;5042517;28;20187;-82
2022/05/27 00:04:37;;;;;;;21.30;3.83;;;15.10;99.90;;;;;;5036737;28;20528;-81
2022/05/27 00:07:03;;;;;;;19.17;4.47;;;15.10;99.90;;;;;;5045883;28;20052;-81
2022/05/27 00:09:29;;;;;;;18.70;3.80;;;15.10;99.90;;;;;;5048229;28;20045;-81
2022/05/27 00:11:55;;;;;;;18.65;4.00;;;15.10;99.90;;;;;;5044966;28;20393;-82
2022/05/27 00:14:20;;;;;;;17.98;3.40;;;15.00;99.90;;;;;;5046681;28;20071;-81
2022/05/27 00:16:46;;;;;;;23.05;3.80;;;15.00;99.90;;;;;;5043589;28;20091;-81
2022/05/27 00:19:12;;;;;;;19.83;3.92;;;15.00;99.90;;;;;;5045997;28;20033;-81
2022/05/27 00:21:38;;;;;;;23.35;3.83;;;14.90;99.90;;;;;;5045133;28;20045;-82
2022/05/27 00:24:04;;;;;;;15.95;3.35;;;14.90;99.90;;;;;;5046456;28;20078;-82
2022/05/27 00:26:30;;;;;;;15.57;2.85;;;14.90;99.90;;;;;;5045573;28;20053;-82
2022/05/27 00:28:56;;;;;;;14.65;3.22;;;14.90;99.90;;;;;;5046168;28;20055;-81
2022/05/27 00:31:22;;;;;;;25.77;4.15;;;14.90;99.90;;;;;;5045701;28;20372;-82
2022/05/27 00:33:47;;;;;;;16.55;3.20;;;14.90;99.90;;;;;;5038533;28;20045;-81
2022/05/27 00:36:14;;;;;;;17.48;3.33;;;14.80;99.90;;;;;;5038679;28;20048;-82
2022/05/27 00:38:41;;;;;;;19.02;3.55;;;14.80;99.90;;;;;;5045534;28;20037;-82
2022/05/27 00:41:08;;;;;;;15.52;3.55;;;14.80;99.90;;;;;;5039760;28;20045;-82
2022/05/27 00:43:33;;;;;;;19.20;3.08;;;14.70;99.90;;;;;;5039398;28;20456;-83
2022/05/27 00:46:05;;;;;;;22.60;3.60;;;14.70;99.90;;;;;;5040838;28;20079;-81
2022/05/27 00:48:32;;;;;;;14.13;2.95;;;14.70;99.90;;;;;;5048463;28;20504;-82
2022/05/27 00:50:59;;;;;;;16.83;3.38;;;14.70;99.90;;;;;;5044810;28;20055;-82
2022/05/27 00:53:35;;;;;;;13.00;2.95;;;14.70;99.90;;;;;;5045359;28;20068;-81
2022/05/27 00:56:04;;;;;;;23.52;3.85;;;14.60;99.90;;;;;;5044525;28;20041;-82
2022/05/27 00:58:40;;;;;;;18.02;3.78;;;14.60;99.90;;;;;;5042005;28;20045;-82
2022/05/27 01:01:05;;;;;;;16.45;3.50;;;14.60;99.90;;;;;;5040016;28;20045;-81
2022/05/27 01:03:32;;;;;;;17.67;3.22;;;14.50;99.90;;;;;;5041712;28;20041;-81
2022/05/27 01:05:58;;;;;;;14.30;3.72;;;14.50;99.90;;;;;;5044485;28;20033;-82
2022/05/27 01:08:27;;;;;;;18.63;4.10;;;14.50;99.90;;;;;;5046593;28;20045;-82
2022/05/27 01:11:09;;;;;;;14.45;2.92;;;14.50;99.90;;;;;;5046859;28;20546;-82
2022/05/27 01:14:00;;;;;;;15.23;3.63;;;14.50;99.90;;;;;;5042418;28;20585;-81
2022/05/27 01:16:26;;;;;;;20.13;3.70;;;14.50;99.90;;;;;;5033992;28;20045;-81
2022/05/27 01:22:34;;;;;;;23.25;3.90;;;14.40;99.90;;;;;;5038881;28;20053;-82
2022/05/27 01:25:18;;;;;;;16.23;3.65;;;14.30;99.90;;;;;;5047970;28;20040;-81
2022/05/27 01:28:18;;;;;;;14.18;3.33;;;14.30;99.90;;;;;;5046188;28;20106;-82
2022/05/27 01:31:09;;;;;;;15.93;4.05;;;14.30;99.90;;;;;;5043864;28;20042;-81
2022/05/27 01:33:47;;;;;;;19.17;3.70;;;14.20;99.90;;;;;;5034512;28;20077;-82
2022/05/27 01:36:27;;;;;;;17.98;3.05;;;14.20;99.90;;;;;;5044505;28;20055;-82
2022/05/27 01:38:53;;;;;;;15.68;2.70;;;14.10;99.90;;;;;;5041246;28;20646;-82
2022/05/27 01:41:26;;;;;;;17.75;3.30;;;14.10;99.90;;;;;;5044188;28;20160;-82
2022/05/27 01:44:05;;;;;;;22.35;4.10;;;14.10;99.90;;;;;;5047330;28;20065;-80
2022/05/27 01:46:36;;;;;;;14.77;2.80;;;14.00;99.90;;;;;;5040726;28;20045;-82
2022/05/27 01:49:26;;;;;;;12.18;2.50;;;14.10;99.90;;;;;;5046309;28;20068;-82
2022/05/27 01:52:17;;;;;;;14.35;3.22;;;14.00;99.90;;;;;;5039829;28;20417;-81
2022/05/27 01:55:01;;;;;;;19.77;3.15;;;13.90;99.90;;;;;;5035896;28;20037;-82
2022/05/27 01:57:50;;;;;;;15.63;2.78;;;13.90;99.90;;;;;;5042903;28;20063;-81
2022/05/27 02:00:17;;;;;;;18.73;3.63;;;13.90;99.90;;;;;;5042497;28;20150;-82
2022/05/27 02:02:58;;;;;;;17.30;2.78;;;13.80;99.90;;;;;;5044463;28;20125;-81
2022/05/27 02:05:43;;;;;;;13.13;2.63;;;13.80;99.90;;;;;;5039676;28;20095;-82
2022/05/27 02:08:11;;;;;;;12.30;2.55;;;13.80;99.90;;;;;;5039273;28;20509;-83
2022/05/27 02:10:43;;;;;;;15.45;2.50;;;13.70;99.90;;;;;;5044054;28;20056;-82
2022/05/27 02:13:18;;;;;;;13.35;2.80;;;13.70;99.90;;;;;;5046904;28;20576;-82
2022/05/27 02:15:47;;;;;;;13.43;2.30;;;13.60;99.90;;;;;;5037592;28;20053;-82
2022/05/27 02:18:25;;;;;;;16.63;2.65;;;13.60;99.90;;;;;;5035638;28;20103;-82
2022/05/27 02:20:56;;;;;;;10.00;2.88;;;13.60;99.90;;;;;;5043280;28;20194;-82
2022/05/27 02:23:31;;;;;;;14.77;2.13;;;13.50;99.90;;;;;;5042410;28;20040;-81
2022/05/27 02:25:59;;;;;;;10.35;2.15;;;13.50;99.90;;;;;;5044013;28;20120;-82
2022/05/27 02:28:31;;;;;;;16.30;3.10;;;13.50;99.90;;;;;;5045051;28;20044;-83
2022/05/27 02:31:02;;;;;;;17.58;3.03;;;13.40;99.90;;;;;;5042508;28;20044;-82
2022/05/27 02:36:36;;;;;;;15.30;2.42;;;13.30;99.90;;;;;;5046776;28;20057;-82
2022/05/27 02:39:04;;;;;;;17.02;3.35;;;13.30;99.90;;;;;;5046457;28;20045;-82
2022/05/27 02:41:31;;;;;;;13.43;2.95;;;13.20;99.90;;;;;;5050411;28;20053;-82
2022/05/27 02:44:18;;;;;;;14.93;2.10;;;13.20;99.90;;;;;;5050196;28;20341;-82
2022/05/27 02:47:07;;;;;;;14.65;2.47;;;13.20;99.90;;;;;;5049995;28;20129;-82
2022/05/27 02:49:53;;;;;;;10.38;1.98;;;13.20;99.90;;;;;;5050207;28;20504;-82
2022/05/27 02:52:42;;;;;;;12.77;2.47;;;13.10;99.90;;;;;;5040055;28;20029;-82
2022/05/27 02:55:29;;;;;;;10.48;2.03;;;13.10;99.90;;;;;;5044808;28;20093;-82
2022/05/27 02:58:02;;;;;;;13.75;2.38;;;13.10;99.90;;;;;;5047418;28;20079;-82
2022/05/27 03:00:30;;;;;;;12.00;2.88;;;13.00;99.90;;;;;;5047135;28;20076;-82
2022/05/27 03:02:59;;;;;;;13.35;3.50;;;13.00;99.90;;;;;;5047421;28;20048;-80
2022/05/27 03:05:50;;;;;;;14.20;2.97;;;13.00;99.90;;;;;;5044181;28;20051;-82
2022/05/27 03:08:20;;;;;;;11.02;2.55;;;12.90;99.90;;;;;;5040930;28;20056;-80
2022/05/27 03:11:08;;;;;;;10.43;2.35;;;12.90;99.90;;;;;;5045796;28;20131;-79
2022/05/27 03:13:45;;;;;;;17.02;2.30;;;12.90;99.90;;;;;;5048584;28;20045;-80
2022/05/27 03:16:17;;;;;;;9.82;2.38;;;12.90;99.90;;;;;;5044187;28;20044;-80
2022/05/27 03:18:51;;;;;;;;;;;12.80;99.90;;;;;;5047412;28;20049;-80
2022/05/27 03:21:38;;;;;;;15.27;2.58;;;12.70;99.90;;;;;;5047388;28;19921;-80
2022/05/27 03:24:21;;;;;;;14.30;2.88;;;12.70;99.90;;;;;;5049055;28;20422;-80
2022/05/27 03:27:18;;;;;;;14.63;2.30;;;12.70;99.90;;;;;;5048932;28;20120;-81
2022/05/27 03:29:56;;;;;;;14.13;2.45;;;12.70;99.90;;;;;;5039889;28;20532;-80
2022/05/27 03:32:39;;;;;;;14.70;2.40;;;12.60;99.90;;;;;;5040780;28;20045;-80
2022/05/27 03:35:30;;;;;;;14.20;3.00;;;12.60;99.90;;;;;;5040475;28;20067;-80
2022/05/27 03:38:11;;;;;;;11.82;2.90;;;12.60;99.90;;;;;;5041512;28;20059;-80
2022/05/27 03:40:51;;;;;;;21.55;2.72;;;12.60;99.90;;;;;;5042068;28;20041;-81
2022/05/27 03:43:18;;;;;;;11.80;2.35;;;12.60;99.90;;;;;;5047914;28;20045;-80
2022/05/27 03:45:49;;;;;;;13.32;2.47;;;12.50;99.90;;;;;;5061086;28;20048;-80
2022/05/27 03:48:17;;;;;;;9.32;2.08;;;12.50;99.90;;;;;;5063072;28;20115;-79
2022/05/27 03:50:44;;;;;;;15.32;2.35;;;12.50;99.90;;;;;;5049524;28;20123;-81
2022/05/27 03:53:10;;;;;;;13.98;3.03;;;12.60;99.90;;;;;;5040772;28;20107;-80
2022/05/27 03:55:35;;;;;;;18.10;3.00;;;12.60;99.90;;;;;;5041968;28;20049;-80
2022/05/27 03:58:01;;;;;;;12.95;3.05;;;12.60;99.90;;;;;;5042250;28;20045;-82
2022/05/27 04:00:27;;;;;;;12.25;2.80;;;12.60;99.90;;;;;;5048132;28;20055;-82
2022/05/27 04:02:52;;;;;;;14.20;2.85;;;12.60;99.90;;;;;;5045534;28;20068;-80
2022/05/27 04:05:18;;;;;;;12.25;2.47;;;12.60;99.90;;;;;;5048966;28;20113;-79
2022/05/27 04:07:45;;;;;;;16.15;3.10;;;12.60;99.90;;;;;;5046062;28;20051;-80
2022/05/27 04:10:11;;;;;;;15.32;2.80;;;12.60;99.90;;;;;;5044481;28;20453;-80
2022/05/27 04:12:37;;;;;;;23.70;2.95;;;12.60;99.90;;;;;;5043915;28;20048;-81
2022/05/27 04:15:04;;;;;;;15.25;2.25;;;12.60;99.90;;;;;;5040826;28;20064;-80
2022/05/27 04:17:32;;;;;;;9.30;2.28;;;12.70;99.90;;;;;;5045478;28;20201;-80
2022/05/27 04:20:07;;;;;;;17.05;2.72;;;12.70;99.90;;;;;;5045737;28;20061;-80
2022/05/27 04:22:33;;;;;;;16.08;2.78;;;12.70;99.90;;;;;;5075848;28;20033;-81
2022/05/27 04:24:59;;;;;;;10.60;2.15;;;12.70;99.90;;;;;;5048292;28;20028;-80
2022/05/27 04:27:26;;;;;;;15.52;2.45;;;12.70;99.90;;;;;;5075078;28;20441;-80
2022/05/27 04:29:53;;;;;;;13.00;3.05;;;12.70;99.90;;;;;;5047221;28;20515;-80
2022/05/27 04:32:18;;;;;;;13.35;2.78;;;12.80;99.90;;;;;;5045733;28;20492;-79
2022/05/27 04:34:44;;;;;;;15.75;3.13;;;12.70;99.90;;;;;;5048512;28;20140;-80
2022/05/27 04:37:11;;;;;;;12.23;2.50;;;12.70;99.90;;;;;;5031249;28;20128;-79
2022/05/27 04:39:37;;;;;;;15.38;2.80;;;12.70;99.90;;;;;;5045290;28;20040;-79
2022/05/27 04:42:03;;;;;;;15.00;3.67;;;12.70;99.90;;;;;;5048166;28;20041;-80
2022/05/27 04:44:29;;;;;;;12.98;2.20;;;12.70;99.90;;;;;;5043644;28;20127;-79
2022/05/27 04:46:54;;;;;;;11.50;2.92;;;12.70;99.90;;;;;;5044334;28;20100;-79
2022/05/27 04:52:05;;;;;;;16.77;2.90;;;12.70;99.90;;;;;;5045036;28;20052;-80
2022/05/27 04:54:31;;;;;;;15.90;3.28;;;12.80;99.90;;;;;;5046618;28;20063;-79
2022/05/27 04:56:57;;;;;;;19.88;2.70;;;12.80;99.90;;;;;;5042831;28;20033;-79
2022/05/27 04:59:23;;;;;;;9.30;2.20;;;12.80;99.90;;;;;;5039876;28;20029;-80
2022/05/27 05:01:49;;;;;;;18.83;3.17;;;12.80;99.90;;;;;;5034724;28;20408;-80
2022/05/27 05:04:15;;;;;;;17.33;3.10;;;12.90;99.90;;;;;;5045344;28;20041;-79
2022/05/27 05:06:41;;;;;;;11.77;2.80;;;12.90;99.90;;;;;;5044143;28;20449;-80
2022/05/27 05:09:07;;;;;;;11.43;2.75;;;12.80;99.90;;;;;;5042437;28;20354;-80
2022/05/27 05:11:33;;;;;;;15.98;2.67;;;12.80;99.90;;;;;;5046331;28;20136;-80
2022/05/27 05:13:58;;;;;;;12.82;2.42;;;12.80;99.90;;;;;;5045616;28;20073;-80
2022/05/27 05:16:25;;;;;;;15.77;2.50;;;12.80;99.90;;;;;;5043523;28;20461;-80
2022/05/27 05:18:50;;;;;;;15.02;2.58;;;12.80;99.90;;;;;;5041467;28;20377;-80
2022/05/27 05:21:16;;;;;;;16.20;2.83;;;12.80;99.90;;;;;;5037685;28;20117;-79
2022/05/27 05:23:42;;;;;;;14.07;2.30;;;12.80;99.90;;;;;;5047539;28;20037;-80
2022/05/27 05:26:08;;;;;;;17.60;2.72;;;12.90;99.90;;;;;;5046549;28;20903;-80
2022/05/27 05:28:34;;;;;;;12.05;3.00;;;12.90;99.90;;;;;;5037761;28;20128;-79
2022/05/27 05:30:59;;;;;;;14.10;3.10;;;12.90;99.90;;;;;;5046625;28;20041;-80
2022/05/27 05:33:25;;;;;;;10.38;2.40;;;12.90;99.90;;;;;;5044459;28;20049;-80
2022/05/27 05:35:51;;;;;;;9.55;2.25;;;12.90;99.90;;;;;;5068405;28;20140;-80
2022/05/27 05:38:17;;;;;;;11.25;2.80;;;12.90;99.90;;;;;;5042904;28;20052;-80
2022/05/27 05:40:43;;;;;;;14.68;2.35;;;12.80;99.90;;;;;;5046663;28;20045;-79
2022/05/27 05:43:09;;;;;;;9.43;2.35;;;12.90;99.90;;;;;;5036910;28;20114;-80
2022/05/27 05:45:35;;;;;;;10.90;2.85;;;12.90;99.90;;;;;;5046035;28;20488;-80
2022/05/27 05:48:00;;;;;;;12.00;2.20;;;12.80;99.90;;;;;;5044312;28;20057;-80
2022/05/27 05:50:27;;;;;;;18.15;3.13;;;12.90;99.90;;;;;;5046210;28;20037;-80
2022/05/27 05:52:53;;;;;;;12.35;2.72;;;12.90;99.90;;;;;;5046063;28;20052;-80
2022/05/27 05:55:20;;;;;;;17.63;2.50;;;13.00;99.90;;;;;;5041835;28;20053;-81
2022/05/27 05:57:49;;;;;;;14.00;2.78;;;13.00;99.90;;;;;;5075191;28;20075;-79
2022/05/27 06:00:23;;;;;;;15.32;2.75;;;13.00;99.90;;;;;;5044672;28;20052;-79
2022/05/27 06:02:49;;;;;;;14.82;2.80;;;13.00;99.90;;;;;;5040015;28;20053;-79
2022/05/27 06:05:15;;;;;;;11.30;2.58;;;13.00;99.90;;;;;;5040957;28;20056;-80
2022/05/27 06:07:41;;;;;;;20.00;3.22;;;13.00;99.90;;;;;;5043889;28;20179;-80
2022/05/27 06:10:08;;;;;;;18.15;3.08;;;13.00;99.90;;;;;;5038682;28;20512;-79
2022/05/27 06:12:35;;;;;;;13.50;3.58;;;13.10;99.90;;;;;;5045178;28;20052;-80
2022/05/27 06:15:01;;;;;;;16.65;2.92;;;13.20;99.90;;;;;;5042262;28;20749;-81
2022/05/27 06:17:27;;;;;;;19.70;2.97;;;13.20;99.90;;;;;;5046064;28;20069;-81
2022/05/27 06:19:53;;;;;;;19.80;3.53;;;13.20;99.90;;;;;;5039049;28;20431;-80
2022/05/27 06:22:19;;;;;;;20.83;3.67;;;13.30;99.90;;;;;;5044367;28;20118;-80
2022/05/27 06:24:44;;;;;;;14.02;2.67;;;13.30;99.90;;;;;;5045621;28;20040;-80
2022/05/27 06:27:10;;;;;;;18.17;2.78;;;13.30;99.90;;;;;;5041550;28;20128;-79
2022/05/27 06:35:05;;;;;;;23.30;3.95;;;13.60;99.90;;;;;;5045087;28;20053;-78
2022/05/27 06:37:31;;;;;;;11.18;2.60;;;13.40;99.90;;;;;;5041627;28;20037;-80
2022/05/27 06:39:57;;;;;;;24.23;3.50;;;13.40;99.90;;;;;;5045694;28;20476;-79
2022/05/27 06:42:23;;;;;;;17.23;3.25;;;13.70;99.90;;;;;;5045371;28;20041;-79
2022/05/27 06:44:49;;;;;;;15.57;3.20;;;13.40;99.90;;;;;;5042413;28;20044;-80
2022/05/27 06:47:15;;;;;;;12.40;2.88;;;13.40;99.90;;;;;;5041876;28;20532;-79
2022/05/27 06:49:44;;;;;;;13.27;2.97;;;13.50;99.90;;;;;;5041246;28;20048;-79
2022/05/27 06:52:13;;;;;;;15.20;2.40;;;13.50;99.90;;;;;;5070474;28;20065;-80
2022/05/27 06:54:39;;;;;;;15.32;3.40;;;13.50;99.90;;;;;;5044779;28;20377;-81
2022/05/27 06:57:06;;;;;;;13.82;2.60;;;13.50;99.90;;;;;;5037035;28;20044;-80
2022/05/27 06:59:32;;;;;;;19.25;3.65;;;13.60;99.90;;;;;;5043578;28;20044;-80
2022/05/27 07:01:58;;;;;;;13.90;3.05;;;13.60;99.90;;;;;;5036224;28;20053;-80
2022/05/27 07:04:24;;;;;;;11.13;2.45;;;13.60;99.90;;;;;;5046344;28;20350;-79
2022/05/27 07:06:50;;;;;;;15.45;3.90;;;13.50;99.90;;;;;;5043016;28;20142;-78
2022/05/27 07:09:21;;;;;;;12.40;2.95;;;13.60;99.90;;;;;;5045737;28;20037;-80
2022/05/27 07:11:50;;;;;;;18.45;2.88;;;13.50;99.90;;;;;;5038365;28;20378;-84
2022/05/27 07:14:17;;;;;;;13.30;2.88;;;13.50;99.90;;;;;;5043733;28;20174;-79
2022/05/27 07:16:45;;;;;;;17.30;2.78;;;13.50;99.90;;;;;;5047277;28;20045;-80
2022/05/27 07:19:11;;;;;;;15.27;3.17;;;13.60;99.90;;;;;;5043610;28;20037;-80
2022/05/27 07:21:42;;;;;;;16.05;3.08;;;13.60;99.90;;;;;;5047873;28;20072;-80
2022/05/27 07:24:09;;;;;;;20.05;3.47;;;13.60;99.90;;;;;;5044847;28;20083;-79
2022/05/27 07:26:36;;;;;;;16.85;2.83;;;13.70;99.90;;;;;;5048931;28;20171;-79
2022/05/27 07:29:02;;;;;;;14.10;2.75;;;13.70;99.90;;;;;;5045155;28;20033;-79
2022/05/27 07:31:29;;;;;;;17.70;3.35;;;13.70;99.90;;;;;;5048408;28;20057;-80
2022/05/27 07:33:55;;;;;;;14.07;3.35;;;13.80;99.90;;;;;;5049334;28;20053;-80
2022/05/27 07:36:21;;;;;;;15.35;3.05;;;13.80;99.90;;;;;;5076838;28;20404;-80
2022/05/27 07:38:51;;;;;;;11.23;2.67;;;13.90;99.90;;;;;;5045355;28;20040;-81
2022/05/27 07:41:17;;;;;;;12.15;3.13;;;13.80;99.90;;;;;;5047661;28;20048;-80
2022/05/27 07:43:46;;;;;;;16.95;3.80;;;13.90;99.90;;;;;;5049805;28;20484;-80
2022/05/27 07:46:15;;;;;;;17.40;3.30;;;13.90;99.90;;;;;;5045056;28;20136;-79
2022/05/27 07:48:44;;;;;;;12.15;3.50;;;13.90;99.90;;;;;;5050338;28;20499;-80
2022/05/27 07:51:13;;;;;;;21.80;2.95;;;14.00;99.90;;;;;;5048817;28;20132;-85
2022/05/27 07:53:38;;;;;;;12.32;3.13;;;14.00;99.90;;;;;;5045516;28;20045;-78
2022/05/27 07:56:06;;;;;;;19.45;3.10;;;14.10;99.90;;;;;;5047942;28;20476;-77
2022/05/27 07:58:33;;;;;;;15.98;3.25;;;14.10;99.90;;;;;;5052206;28;20045;-77
2022/05/27 08:00:59;;;;;;;19.38;3.08;;;14.10;99.90;;;;;;5050409;28;20049;-74
2022/05/27 08:03:28;;;;;;;15.43;3.28;;;14.10;99.90;;;;;;5050618;28;20484;-79
2022/05/27 08:05:54;;;;;;;11.50;3.10;;;14.10;99.90;;;;;;5050257;28;20044;-79
2022/05/27 08:08:20;;;;;;;11.07;3.47;;;14.00;99.90;;;;;;5046101;28;20514;-77
2022/05/27 08:10:46;;;;;;;17.08;3.45;;;14.10;99.90;;;;;;5052948;28;20077;-79
2022/05/27 08:13:12;;;;;;;14.27;3.08;;;14.10;99.90;;;;;;5048883;28;20158;-79
2022/05/27 08:15:38;;;;;;;19.23;3.00;;;14.20;99.90;;;;;;5049042;28;20426;-79
2022/05/27 08:18:04;;;;;;;16.05;3.45;;;14.20;99.90;;;;;;5044300;28;20040;-77
2022/05/27 08:20:35;;;;;;;10.65;3.00;;;14.20;99.90;;;;;;5054120;28;20059;-78
2022/05/27 08:23:01;;;;;;;13.85;2.17;;;14.30;99.90;;;;;;5041434;28;20087;-79
2022/05/27 08:25:30;;;;;;;10.82;2.58;;;14.30;99.90;;;;;;5049293;28;20056;-79
2022/05/27 08:27:56;;;;;;;10.85;2.80;;;14.30;99.90;;;;;;5050071;28;20037;-80
2022/05/27 08:30:25;;;;;;;18.65;2.63;;;14.30;99.90;;;;;;5048706;28;20230;-79
2022/05/27 08:32:51;;;;;;;14.95;2.33;;;14.40;99.90;;;;;;5046530;28;20048;-79
2022/05/27 08:38:10;;;;;;;10.02;2.58;;;14.50;99.90;;;;;;5040925;28;20045;-79
2022/05/27 08:40:59;;;;;;;19.48;3.53;;;14.60;99.90;;;;;;5052861;28;20423;-78
2022/05/27 08:44:03;;;;;;;21.23;2.55;;;14.70;99.90;;;;;;5046534;28;20064;-79
2022/05/27 08:47:02;;;;;;;17.23;2.97;;;14.60;99.90;;;;;;5053356;28;21022;-79
2022/05/27 08:49:35;;;;;;;16.33;2.78;;;14.60;99.90;;;;;;5048037;28;20045;-79
2022/05/27 08:52:29;;;;;;;20.20;3.77;;;14.60;99.90;;;;;;5038869;28;20425;-78
2022/05/27 08:54:59;;;;;;;20.80;2.90;;;14.70;99.90;;;;;;5043008;28;20400;-78
2022/05/27 09:00:27;;;;;;;17.90;3.10;;;14.70;99.90;;;;;;5049390;28;20442;-78
2022/05/27 09:02:53;;;;;;;13.73;2.92;;;14.70;99.90;;;;;;5045387;28;20060;-77
2022/05/27 09:05:38;;;;;;;19.02;3.38;;;14.70;99.90;;;;;;5047638;28;20036;-79
2022/05/27 09:08:20;;;;;;;23.15;3.83;;;14.70;99.90;;;;;;5046194;28;20049;-77
2022/05/27 09:10:58;;;;;;;14.95;3.08;;;14.70;99.90;;;;;;5037823;28;20128;-77
2022/05/27 09:13:35;;;;;;;16.27;3.10;;;14.70;99.90;;;;;;5048937;28;20148;-78
2022/05/27 09:16:37;;;;;;;14.10;3.30;;;14.80;99.90;;;;;;5048692;28;20029;-77
2022/05/27 09:19:16;;;;;;;19.27;3.95;;;14.80;99.90;;;;;;5048779;28;20041;-77
2022/05/27 09:22:03;;;;;;;22.55;3.13;;;14.80;99.90;;;;;;5042803;28;20059;-78
2022/05/27 09:24:49;;;;;;;12.70;2.97;;;14.80;99.90;;;;;;5047023;28;20737;-78
2022/05/27 09:27:23;;;;;;;12.63;3.17;;;14.80;99.90;;;;;;5047002;28;20048;-77
2022/05/27 09:29:58;;;;;;;14.68;3.20;;;14.80;99.90;;;;;;5048530;28;20070;-78
2022/05/27 09:32:43;;;;;;;16.67;3.00;;;14.80;99.90;;;;;;5046703;28;20048;-79
2022/05/27 09:35:17;;;;;;;18.70;4.00;;;14.80;99.90;;;;;;5045554;28;20163;-78
2022/05/27 09:37:46;;;;;;;15.15;2.92;;;14.80;99.90;;;;;;5046535;28;20033;-78
2022/05/27 09:40:17;;;;;;;16.83;3.10;;;14.80;99.90;;;;;;5042963;28;20396;-78
2022/05/27 09:42:54;;;;;;;16.88;3.65;;;14.90;99.90;;;;;;5046563;28;20072;-79
2022/05/27 09:45:19;;;;;;;20.75;5.50;;;15.00;99.90;;;;;;5070142;28;20049;-77
2022/05/27 09:47:45;;;;;;;16.30;3.70;;;15.10;99.90;;;;;;5076698;28;20037;-79
2022/05/27 09:50:28;;;;;;;16.40;3.38;;;15.10;99.90;;;;;;5037967;28;20459;-78
2022/05/27 09:52:57;;;;;;;15.00;3.25;;;15.20;99.90;;;;;;5046177;28;20045;-78
2022/05/27 09:55:31;;;;;;;14.15;3.47;;;15.30;99.90;;;;;;5047576;28;20063;-77
2022/05/27 09:58:00;;;;;;;15.10;3.20;;;15.20;99.90;;;;;;5046767;28;20158;-78
2022/05/27 10:00:36;;;;;;;16.23;3.22;;;15.20;99.90;;;;;;5048215;28;20053;-78
2022/05/27 10:03:20;;;;;;;16.67;3.00;;;15.20;99.90;;;;;;5049517;28;20044;-78
2022/05/27 10:06:23;;;;;;;19.83;2.75;;;15.20;99.90;;;;;;5044969;28;20507;-80
2022/05/27 10:08:58;;;;;;;17.25;3.38;;;15.20;99.90;;;;;;5014687;28;20057;-78
2022/05/27 10:11:48;;;;;;;18.08;3.38;;;15.20;99.90;;;;;;5043981;28;20156;-78
2022/05/27 10:14:50;;;;;;;18.92;3.97;;;15.20;99.90;;;;;;5037565;28;20123;-79
2022/05/27 10:17:27;;;;;;;;;;;15.30;99.90;;;;;;5040963;28;20052;-78
2022/05/27 10:20:11;;;;;;;16.30;3.75;;;15.30;99.90;;;;;;5047277;28;20318;-80
2022/05/27 10:22:37;;;;;;;17.17;3.42;;;15.40;99.90;;;;;;5045803;28;20448;-80
2022/05/27 10:25:12;;;;;;;20.40;3.58;;;15.60;99.90;;;;;;5046277;28;20060;-80
2022/05/27 10:27:51;;;;;;;13.43;3.17;;;15.50;99.90;;;;;;5046688;28;20090;-79
2022/05/27 10:30:19;;;;;;;19.40;3.03;;;15.50;99.90;;;;;;5035403;28;20453;-80
2022/05/27 10:32:45;;;;;;;15.55;4.03;;;15.50;99.90;;;;;;5060397;28;20067;-78
2022/05/27 10:35:20;;;;;;;15.80;2.90;;;15.50;99.90;;;;;;5045835;28;20051;-80
2022/05/27 10:37:51;;;;;;;16.58;3.67;;;15.50;99.90;;;;;;5047219;28;20044;-79
2022/05/27 10:40:19;;;;;;;27.42;3.65;;;15.60;99.90;;;;;;5046318;28;20431;-79
2022/05/27 10:43:13;;;;;;;17.42;3.55;;;15.60;99.90;;;;;;5046274;28;20052;-78
2022/05/27 10:45:43;;;;;;;17.55;3.58;;;15.60;99.90;;;;;;5047332;28;20044;-78
2022/05/27 10:48:30;;;;;;;16.58;3.30;;;15.60;99.90;;;;;;5041949;28;20052;-78
2022/05/27 10:51:14;;;;;;;15.60;2.90;;;15.70;99.90;;;;;;5047767;28;20128;-79
2022/05/27 10:53:49;;;;;;;14.45;3.47;;;15.80;99.90;;;;;;5043160;28;20505;-79
2022/05/27 10:56:40;;;;;;;15.50;3.15;;;15.80;99.90;;;;;;5049419;28;20155;-77
2022/05/27 11:02:25;;;;;;;11.25;2.72;;;15.80;99.40;;;;;;5042570;28;20307;-78
2022/05/27 11:05:32;;;;;;;15.90;2.92;;;15.70;99.50;;;;;;5051680;28;20041;-78
2022/05/27 11:08:01;;;;;;;18.55;3.55;;;15.70;99.50;;;;;;5009383;28;20632;-78
2022/05/27 11:11:04;;;;;;;12.95;3.28;;;15.80;99.60;;;;;;5049753;28;20068;-78
2022/05/27 11:16:44;;;;;;;17.67;3.47;;;15.80;99.90;;;;;;5049255;28;20045;-79
2022/05/27 11:19:52;;;;;;;14.90;2.45;;;15.80;99.90;;;;;;5050469;28;20144;-77
2022/05/27 11:22:55;;;;;;;11.98;2.97;;;15.80;99.40;;;;;;5035489;28;20680;-79
2022/05/27 11:25:53;;;;;;;13.15;3.08;;;15.80;99.00;;;;;;5042008;28;20069;-80
2022/05/27 11:28:18;;;;;;;14.68;2.80;;;15.80;99.20;;;;;;5050977;28;20056;-80
2022/05/27 11:31:03;;;;;;;14.65;2.67;;;15.70;99.70;;;;;;5048950;28;20037;-78
2022/05/27 11:33:37;;;;;;;18.58;3.50;;;15.80;99.50;;;;;;5049755;28;20049;-78
2022/05/27 11:36:27;;;;;;;15.50;2.75;;;15.80;99.40;;;;;;5049900;28;20029;-80
2022/05/27 11:39:01;;;;;;;13.90;3.17;;;15.90;99.20;;;;;;5049202;28;20071;-78
2022/05/27 11:41:35;;;;;;;16.27;3.70;;;15.90;98.50;;;;;;5051477;28;20052;-79
2022/05/27 11:44:25;;;;;;;16.83;2.47;;;15.90;98.60;;;;;;5049840;28;20155;-77
2022/05/27 11:47:44;;;;;;;17.83;3.10;;;15.90;98.50;;;;;;5050689;28;20047;-79
2022/05/27 11:50:30;;;;;;;14.75;3.10;;;15.80;98.50;;;;;;5008051;28;20185;-78
2022/05/27 11:53:16;;;;;;;18.52;4.05;;;15.70;98.70;;;;;;5044039;28;20049;-79
2022/05/27 11:56:13;;;;;;;16.60;3.13;;;15.70;99.00;;;;;;5080998;28;20077;-80
2022/05/27 11:58:54;;;;;;;13.77;2.90;;;15.70;98.10;;;;;;5036715;28;20099;-78
2022/05/27 12:01:40;;;;;;;18.63;3.08;;;15.70;98.70;;;;;;5049856;28;20087;-79
2022/05/27 12:04:32;;;;;;;15.90;3.50;;;15.60;99.00;;;;;;5050127;28;20045;-77
2022/05/27 12:07:24;;;;;;;17.35;3.22;;;15.50;99.40;;;;;;5047010;28;20163;-78
2022/05/27 12:10:00;;;;;;;14.70;2.90;;;15.60;99.50;;;;;;5047660;28;20064;-78
2022/05/27 12:12:34;;;;;;;19.73;3.63;;;15.60;99.50;;;;;;5050673;28;20065;-78
2022/05/27 12:15:09;;;;;;;19.10;3.45;;;15.60;99.40;;;;;;5049621;28;20040;-78
2022/05/27 12:17:49;;;;;;;15.75;2.78;;;15.60;99.10;;;;;;5050686;28;20119;-79
2022/05/27 12:20:20;;;;;;;31.20;3.33;;;15.70;98.80;;;;;;5049150;28;20118;-80
2022/05/27 12:22:48;;;;;;;14.82;3.10;;;15.80;99.20;;;;;;5048837;28;20048;-79
2022/05/27 12:25:27;;;;;;;15.18;3.47;;;15.80;99.10;;;;;;5048937;28;20110;-80
2022/05/27 12:27:55;;;;;;;31.08;3.72;;;15.80;98.90;;;;;;5049195;28;20461;-78
2022/05/27 12:30:28;;;;;;;15.25;3.08;;;15.80;99.70;;;;;;5048879;28;20052;-77
2022/05/27 12:32:56;;;;;;;13.48;2.60;;;15.90;99.80;;;;;;5049894;28;20048;-79
2022/05/27 12:35:26;;;;;;;15.57;2.78;;;15.90;99.20;;;;;;5048141;28;20389;-80
2022/05/27 12:38:17;;;;;;;11.30;2.55;;;16.00;98.60;;;;;;5047681;28;20079;-79
2022/05/27 12:40:50;;;;;;;15.13;3.10;;;16.00;98.50;;;;;;5045594;28;20044;-79
2022/05/27 12:43:24;;;;;;;20.55;3.92;;;16.20;99.00;;;;;;5047887;28;20134;-78
2022/05/27 12:45:52;;;;;;;16.67;3.00;;;16.30;98.40;;;;;;5049623;28;20037;-79
2022/05/27 12:48:29;;;;;;;13.60;3.10;;;16.30;98.70;;;;;;5052475;28;20449;-78
2022/05/27 12:51:03;;;;;;;21.00;3.60;;;16.50;98.40;;;;;;5049284;28;20043;-79
2022/05/27 12:53:43;;;;;;;18.42;2.80;;;16.50;98.30;;;;;;5064153;28;20134;-80
2022/05/27 13:02:22;;;;;;;12.93;2.55;;;16.80;97.30;;;;;;5045870;28;20060;-80
2022/05/27 13:05:00;;;;;;;11.85;2.30;;;16.80;97.20;;;;;;5048624;28;20404;-78
2022/05/27 13:07:28;;;;;;;16.05;2.90;;;17.00;96.50;;;;;;5048407;28;20053;-79
2022/05/27 13:09:55;;;;;;;14.80;2.40;;;16.90;96.10;;;;;;5046436;28;20206;-79
2022/05/27 13:12:42;;;;;;;14.52;2.72;;;16.90;96.60;;;;;;5047951;28;20041;-79
2022/05/27 13:15:22;;;;;;;16.92;3.03;;;17.00;96.30;;;;;;5048924;28;20476;-79
2022/05/27 13:18:09;;;;;;;18.33;3.03;;;17.10;96.20;;;;;;5029749;28;20045;-78
2022/05/27 13:21:18;;;;;;;12.57;2.88;;;17.20;95.80;;;;;;5047964;28;20055;-79
2022/05/27 13:24:10;;;;;;;11.35;2.72;;;17.10;95.30;;;;;;5049384;28;20033;-79
2022/05/27 13:26:49;;;;;;;17.58;3.58;;;17.10;95.60;;;;;;5043858;28;20049;-80
2022/05/27 13:29:34;;;;;;;16.73;3.00;;;16.90;95.50;;;;;;5048189;28;20094;-78
2022/05/27 13:32:20;;;;;;;14.82;3.47;;;17.00;95.60;;;;;;5049052;28;20555;-79
2022/05/27 13:34:56;;;;;;;19.00;3.55;;;16.80;95.20;;;;;;5047534;28;20087;-78
2022/05/27 13:37:40;;;;;;;19.98;3.50;;;16.60;95.20;;;;;;5048118;28;20144;-79
2022/05/27 13:40:27;;;;;;;19.02;3.35;;;16.40;95.60;;;;;;5048090;28;20049;-79
2022/05/27 13:42:56;;;;;;;18.98;3.38;;;16.40;95.90;;;;;;5048789;28;20045;-78
2022/05/27 13:45:21;;;;;;;14.73;3.30;;;16.30;96.00;;;;;;5048291;28;20171;-79